createdAt,value
2017-11-03T00:00:38.676Z,23.23
2017-11-03T00:03:06.956Z,28.50
2017-11-03T00:05:35.196Z,27.55
2017-11-03T00:08:03.448Z,21.23
2017-11-03T00:10:31.704Z,19.60
2017-11-03T00:13:00.727Z,21.77
2017-11-03T00:15:28.961Z,19.33
2017-11-03T00:17:57.237Z,22.55
2017-11-03T00:20:25.480Z,24.30
2017-11-03T00:22:53.726Z,23.95
2017-11-03T00:25:22.802Z,26.50
2017-11-03T00:27:51.828Z,27.45
2017-11-03T00:30:20.064Z,25.48
2017-11-03T00:32:48.340Z,19.15
2017-11-03T00:35:16.584Z,27.70
2017-11-03T00:37:44.825Z,23.43
2017-11-03T00:40:14.053Z,28.87
2017-11-03T00:42:42.286Z,20.25
2017-11-03T00:45:10.543Z,25.10
2017-11-03T00:47:39.579Z,23.67
2017-11-03T00:50:07.830Z,20.15
2017-11-03T00:52:36.064Z,21.15
2017-11-03T00:55:04.709Z,24.30
2017-11-03T00:57:32.929Z,22.93
2017-11-03T01:00:02.793Z,21.62
2017-11-03T01:02:31.061Z,23.35
2017-11-03T01:04:59.299Z,18.60
2017-11-03T01:07:27.540Z,24.58
2017-11-03T01:09:56.565Z,19.02
2017-11-03T01:12:24.796Z,23.47
2017-11-03T01:14:53.037Z,27.52
2017-11-03T01:17:22.164Z,20.55
2017-11-03T01:19:50.408Z,24.20
2017-11-03T01:22:18.660Z,21.55
2017-11-03T01:24:46.941Z,20.17
2017-11-03T01:27:15.177Z,25.50
2017-11-03T01:29:43.424Z,23.52
2017-11-03T01:32:12.459Z,28.30
2017-11-03T01:34:40.708Z,26.00
2017-11-03T01:37:09.006Z,26.80
2017-11-03T01:39:38.066Z,24.37
2017-11-03T01:42:06.354Z,24.55
2017-11-03T01:44:34.637Z,23.60
2017-11-03T01:47:03.712Z,19.87
2017-11-03T01:49:32.782Z,24.87
2017-11-03T01:52:01.823Z,24.98
2017-11-03T01:54:30.090Z,19.25
2017-11-03T01:56:58.376Z,22.48
2017-11-03T01:59:26.655Z,25.30
2017-11-03T02:01:55.709Z,22.23
2017-11-03T02:04:23.981Z,21.67
2017-11-03T02:06:53.135Z,22.20
2017-11-03T02:09:21.406Z,24.27
2017-11-03T02:11:49.708Z,22.10
2017-11-03T02:14:17.987Z,20.73
2017-11-03T02:16:46.267Z,20.20
2017-11-03T02:19:14.550Z,26.37
2017-11-03T02:21:42.817Z,23.75
2017-11-03T02:24:11.107Z,24.30
2017-11-03T02:26:40.147Z,33.22
2017-11-03T02:29:08.434Z,26.87
2017-11-03T02:31:37.478Z,26.33
2017-11-03T02:34:05.791Z,30.80
2017-11-03T02:36:34.838Z,25.40
2017-11-03T02:39:03.120Z,29.30
2017-11-03T02:41:32.166Z,29.90
2017-11-03T02:44:00.438Z,24.58
2017-11-03T02:46:30.231Z,28.23
2017-11-03T02:48:58.501Z,27.05
2017-11-03T02:51:26.983Z,30.77
2017-11-03T02:53:55.242Z,21.98
2017-11-03T02:56:23.600Z,26.00
2017-11-03T02:58:51.851Z,28.30
2017-11-03T03:01:20.127Z,24.48
2017-11-03T03:03:49.178Z,21.42
2017-11-03T03:06:17.458Z,35.50
2017-11-03T03:08:47.246Z,28.48
2017-11-03T03:11:15.646Z,24.17
2017-11-03T03:13:43.936Z,25.73
2017-11-03T03:16:12.207Z,22.98
2017-11-03T03:18:40.506Z,25.67
2017-11-03T03:21:08.787Z,27.80
2017-11-03T03:23:37.860Z,26.75
2017-11-03T03:26:06.903Z,22.17
2017-11-03T03:28:35.169Z,24.85
2017-11-03T03:31:03.483Z,21.73
2017-11-03T03:33:31.742Z,29.17
2017-11-03T03:36:00.028Z,22.33
2017-11-03T03:38:28.381Z,24.90
2017-11-03T03:40:56.713Z,25.27
2017-11-03T03:43:25.776Z,28.20
2017-11-03T03:45:54.055Z,24.40
2017-11-03T03:48:23.104Z,28.12
2017-11-03T03:50:51.439Z,27.75
2017-11-03T03:53:19.706Z,25.90
2017-11-03T03:55:47.980Z,24.20
2017-11-03T03:58:16.271Z,30.02
2017-11-03T04:00:45.306Z,23.42
2017-11-03T04:03:13.706Z,22.13
2017-11-03T04:05:41.975Z,25.58
2017-11-03T04:08:11.011Z,23.70
2017-11-03T04:10:39.309Z,25.17
2017-11-03T04:13:08.346Z,23.80
2017-11-03T04:15:36.638Z,23.50
2017-11-03T04:18:04.941Z,21.93
2017-11-03T04:20:34.998Z,22.58
2017-11-03T04:23:03.274Z,26.35
2017-11-03T04:25:33.091Z,23.33
2017-11-03T04:28:02.122Z,25.42
2017-11-03T04:30:30.398Z,21.12
2017-11-03T04:32:58.690Z,19.67
2017-11-03T04:35:27.727Z,26.52
2017-11-03T04:37:56.011Z,22.75
2017-11-03T04:40:24.277Z,31.70
2017-11-03T04:42:53.331Z,25.05
2017-11-03T04:45:21.603Z,30.90
2017-11-03T04:47:49.918Z,24.05
2017-11-03T04:50:18.198Z,26.00
2017-11-03T04:52:46.467Z,25.52
2017-11-03T04:55:14.768Z,24.08
2017-11-03T04:57:43.798Z,20.92
2017-11-03T05:00:12.082Z,24.60
2017-11-03T05:02:40.350Z,22.08
2017-11-03T05:05:08.636Z,27.50
2017-11-03T05:07:37.671Z,19.77
2017-11-03T05:10:06.010Z,24.52
2017-11-03T05:12:34.287Z,25.00
2017-11-03T05:15:02.562Z,24.00
2017-11-03T05:17:30.855Z,30.55
2017-11-03T05:19:59.123Z,25.05
2017-11-03T05:22:28.173Z,23.80
2017-11-03T05:24:56.438Z,19.50
2017-11-03T05:27:24.729Z,23.95
2017-11-03T05:29:53.766Z,24.33
2017-11-03T05:32:22.261Z,25.60
2017-11-03T05:34:50.527Z,30.93
2017-11-03T05:37:19.592Z,26.75
2017-11-03T05:39:48.664Z,20.90
2017-11-03T05:42:16.946Z,22.70
2017-11-03T05:44:45.225Z,25.02
2017-11-03T05:47:14.274Z,25.13
2017-11-03T05:49:42.567Z,28.60
2017-11-03T05:52:10.838Z,23.70
2017-11-03T05:54:40.205Z,27.93
2017-11-03T05:57:08.460Z,25.93
2017-11-03T05:59:37.558Z,25.00
2017-11-03T06:02:05.966Z,22.20
2017-11-03T06:04:34.234Z,24.75
2017-11-03T06:07:02.599Z,24.20
2017-11-03T06:09:30.870Z,21.65
2017-11-03T06:11:59.171Z,21.23
2017-11-03T06:14:28.974Z,27.27
2017-11-03T06:16:57.266Z,24.10
2017-11-03T06:19:25.555Z,21.67
2017-11-03T06:21:54.362Z,21.02
2017-11-03T06:24:23.522Z,37.93
2017-11-03T06:26:52.560Z,24.67
2017-11-03T06:29:20.852Z,25.75
2017-11-03T06:31:49.116Z,23.67
2017-11-03T06:34:18.182Z,23.33
2017-11-03T06:36:46.468Z,25.25
2017-11-03T06:39:15.543Z,23.05
2017-11-03T06:41:43.815Z,24.25
2017-11-03T06:44:13.467Z,27.98
2017-11-03T06:46:41.799Z,29.17
2017-11-03T06:49:10.075Z,31.70
2017-11-03T06:51:39.175Z,25.47
2017-11-03T06:54:07.455Z,26.93
2017-11-03T06:56:37.733Z,22.23
2017-11-03T06:59:06.011Z,26.05
2017-11-03T07:01:34.907Z,27.73
2017-11-03T07:04:03.186Z,27.25
2017-11-03T07:06:32.219Z,24.47
2017-11-03T07:09:00.499Z,24.60
2017-11-03T07:11:28.779Z,26.67
2017-11-03T07:13:57.831Z,26.10
2017-11-03T07:16:27.324Z,26.85
2017-11-03T07:18:55.618Z,26.80
2017-11-03T07:21:24.656Z,48.60
2017-11-03T07:23:53.010Z,31.23
2017-11-03T07:26:21.286Z,29.08
2017-11-03T07:28:49.563Z,35.67
2017-11-03T07:31:18.619Z,37.28
2017-11-03T07:33:46.899Z,31.12
2017-11-03T07:36:15.191Z,33.28
2017-11-03T07:38:44.231Z,29.67
2017-11-03T07:41:12.512Z,29.10
2017-11-03T07:43:41.555Z,30.05
2017-11-03T07:46:09.867Z,30.33
2017-11-03T07:48:38.891Z,30.55
2017-11-03T07:51:07.155Z,31.10
2017-11-03T07:53:35.433Z,31.10
2017-11-03T07:56:03.754Z,24.73
2017-11-03T07:58:32.031Z,24.12
2017-11-03T08:01:00.355Z,21.15
2017-11-03T08:03:29.452Z,22.77
2017-11-03T08:05:57.715Z,21.73
2017-11-03T08:08:25.985Z,22.30
2017-11-03T08:10:54.830Z,24.83
2017-11-03T08:13:23.113Z,26.52
2017-11-03T08:15:51.407Z,24.37
2017-11-03T08:18:19.694Z,21.77
2017-11-03T08:20:48.788Z,21.65
2017-11-03T08:23:18.495Z,23.98
2017-11-03T08:25:47.553Z,30.40
2017-11-03T08:28:15.828Z,20.67
2017-11-03T08:30:44.943Z,25.37
2017-11-03T08:33:13.225Z,28.60
2017-11-03T08:35:41.940Z,27.50
2017-11-03T08:38:10.981Z,26.02
2017-11-03T08:40:39.253Z,24.60
2017-11-03T08:43:07.562Z,30.03
2017-11-03T08:45:35.838Z,27.87
2017-11-03T08:48:04.143Z,28.67
2017-11-03T08:50:32.430Z,28.67
2017-11-03T08:53:01.699Z,31.10
2017-11-03T08:55:30.730Z,24.48
2017-11-03T08:57:59.006Z,27.85
2017-11-03T09:00:27.298Z,27.08
2017-11-03T09:02:56.335Z,25.75
2017-11-03T09:05:24.622Z,24.92
2017-11-03T09:07:52.899Z,26.60
2017-11-03T09:10:22.102Z,26.23
2017-11-03T09:12:50.379Z,26.07
2017-11-03T09:15:18.706Z,31.80
2017-11-03T09:17:47.199Z,27.80
2017-11-03T09:20:15.530Z,24.63
2017-11-03T09:22:43.833Z,30.62
2017-11-03T09:25:12.107Z,23.98
2017-11-03T09:27:40.386Z,28.63
2017-11-03T09:30:08.672Z,26.75
2017-11-03T09:32:36.946Z,28.30
2017-11-03T09:35:05.994Z,29.00
2017-11-03T09:37:34.315Z,29.60
2017-11-03T09:40:02.619Z,29.55
2017-11-03T09:42:30.899Z,31.37
2017-11-03T09:45:00.063Z,27.48
2017-11-03T09:47:28.327Z,31.70
2017-11-03T09:49:56.651Z,33.95
2017-11-03T09:52:24.938Z,27.50
2017-11-03T09:54:53.230Z,32.47
2017-11-03T09:57:21.529Z,30.37
2017-11-03T09:59:50.691Z,39.90
2017-11-03T10:02:19.742Z,27.30
2017-11-03T10:04:48.032Z,31.48
2017-11-03T10:07:17.074Z,28.60
2017-11-03T10:09:45.359Z,28.50
2017-11-03T10:12:14.410Z,32.22
2017-11-03T10:14:42.687Z,31.67
2017-11-03T10:17:11.025Z,37.15
2017-11-03T10:19:39.315Z,34.42
2017-11-03T10:22:07.591Z,34.85
2017-11-03T10:24:36.651Z,32.55
2017-11-03T10:27:06.458Z,30.52
2017-11-03T10:29:35.437Z,32.85
2017-11-03T10:32:03.715Z,33.10
2017-11-03T10:34:33.388Z,33.55
2017-11-03T10:37:02.521Z,27.30
2017-11-03T10:39:30.798Z,30.10
2017-11-03T10:41:59.094Z,25.60
2017-11-03T10:44:27.375Z,28.33
2017-11-03T10:46:55.708Z,27.27
2017-11-03T10:49:23.969Z,28.62
2017-11-03T10:51:52.282Z,26.83
2017-11-03T10:54:20.591Z,28.00
2017-11-03T10:56:48.875Z,25.88
2017-11-03T10:59:17.934Z,29.48
2017-11-03T11:01:46.227Z,27.33
2017-11-03T11:04:15.681Z,25.95
2017-11-03T11:06:43.962Z,25.83
2017-11-03T11:09:13.758Z,24.35
2017-11-03T11:11:42.802Z,24.23
2017-11-03T11:14:11.170Z,24.42
2017-11-03T11:19:24.320Z,28.00
2017-11-03T11:21:53.369Z,28.33
2017-11-03T11:24:21.670Z,25.48
2017-11-03T11:26:50.122Z,27.05
2017-11-03T11:29:18.382Z,27.43
2017-11-03T11:31:47.694Z,28.58
2017-11-03T11:34:15.980Z,26.02
2017-11-03T11:36:44.281Z,22.20
2017-11-03T11:39:12.591Z,31.42
2017-11-03T11:41:42.086Z,25.17
2017-11-03T11:44:10.395Z,21.73
2017-11-03T11:46:38.690Z,17.40
2017-11-03T11:49:07.011Z,25.85
2017-11-03T11:51:35.283Z,24.67
2017-11-03T11:54:04.330Z,23.90
2017-11-03T11:56:32.831Z,21.58
2017-11-03T11:59:01.114Z,20.02
2017-11-03T12:01:29.390Z,23.67
2017-11-03T12:03:57.815Z,22.67
2017-11-03T12:06:26.081Z,20.80
2017-11-03T12:08:55.116Z,28.20
2017-11-03T12:11:24.110Z,21.60
2017-11-03T12:13:52.384Z,22.97
2017-11-03T12:16:21.446Z,27.52
2017-11-03T12:18:49.722Z,24.08
2017-11-03T12:21:18.066Z,22.40
2017-11-03T12:23:46.326Z,21.20
2017-11-03T12:26:16.855Z,17.40
2017-11-03T12:28:45.931Z,14.98
2017-11-03T12:31:14.222Z,17.73
2017-11-03T12:33:43.290Z,15.80
2017-11-03T12:36:12.374Z,17.42
2017-11-03T12:38:40.646Z,17.17
2017-11-03T12:41:09.691Z,17.83
2017-11-03T12:43:37.995Z,16.85
2017-11-03T12:46:06.294Z,23.33
2017-11-03T12:48:34.603Z,18.58
2017-11-03T12:51:03.674Z,14.10
2017-11-03T12:53:32.751Z,18.17
2017-11-03T12:56:01.035Z,15.10
2017-11-03T12:58:30.087Z,15.30
2017-11-03T13:00:58.401Z,16.33
2017-11-03T13:03:26.691Z,16.67
2017-11-03T13:05:54.982Z,16.00
2017-11-03T13:08:29.683Z,16.00
2017-11-03T13:10:57.971Z,16.75
2017-11-03T13:13:27.035Z,12.73
2017-11-03T13:15:56.100Z,16.70
2017-11-03T13:18:31.969Z,15.43
2017-11-03T13:21:01.030Z,14.05
2017-11-03T13:23:29.314Z,15.70
2017-11-03T13:25:58.420Z,14.55
2017-11-03T13:28:26.738Z,13.88
2017-11-03T13:30:55.802Z,13.07
2017-11-03T13:33:24.078Z,13.25
2017-11-03T13:35:53.118Z,14.43
2017-11-03T13:38:21.419Z,15.27
2017-11-03T13:40:50.467Z,15.82
2017-11-03T13:43:18.768Z,13.20
2017-11-03T13:45:47.803Z,14.82
2017-11-03T13:48:16.126Z,15.70
2017-11-03T13:50:44.419Z,15.40
2017-11-03T13:53:12.703Z,15.93
2017-11-03T13:55:41.007Z,12.75
2017-11-03T13:58:09.282Z,15.53
2017-11-03T14:00:37.574Z,12.15
2017-11-03T14:03:05.850Z,16.08
2017-11-03T14:05:34.151Z,11.07
2017-11-03T14:08:02.432Z,15.68
2017-11-03T14:10:30.742Z,17.80
2017-11-03T14:12:59.024Z,14.57
2017-11-03T14:15:28.079Z,15.18
2017-11-03T14:17:56.371Z,15.02
2017-11-03T14:20:25.403Z,14.85
2017-11-03T14:22:53.704Z,14.95
2017-11-03T14:25:22.747Z,13.73
2017-11-03T14:27:51.034Z,11.48
2017-11-03T14:30:19.335Z,13.90
2017-11-03T14:32:47.611Z,12.05
2017-11-03T14:35:15.890Z,9.10
2017-11-03T14:37:44.155Z,11.67
2017-11-03T14:40:12.450Z,11.40
2017-11-03T14:42:41.482Z,13.73
2017-11-03T14:45:09.823Z,14.85
2017-11-03T14:47:38.093Z,12.85
2017-11-03T14:50:06.366Z,15.30
2017-11-03T14:52:34.650Z,11.65
2017-11-03T14:55:04.440Z,10.25
2017-11-03T14:57:33.017Z,14.07
2017-11-03T15:00:01.266Z,13.60
2017-11-03T15:02:29.740Z,11.25
2017-11-03T15:04:58.103Z,10.57
2017-11-03T15:07:26.375Z,12.52
2017-11-03T15:09:54.658Z,8.73
2017-11-03T15:12:23.687Z,13.00
2017-11-03T15:14:51.977Z,13.75
2017-11-03T15:17:20.238Z,10.40
2017-11-03T15:19:48.523Z,11.70
2017-11-03T15:22:17.554Z,11.35
2017-11-03T15:24:45.872Z,11.95
2017-11-03T15:27:14.189Z,11.20
2017-11-03T15:29:42.459Z,17.08
2017-11-03T15:32:10.758Z,15.52
2017-11-03T15:34:39.038Z,12.98
2017-11-03T15:37:07.314Z,14.68
2017-11-03T15:39:35.589Z,16.20
2017-11-03T15:42:04.098Z,11.50
2017-11-03T15:44:33.126Z,14.95
2017-11-03T15:47:01.545Z,11.82
2017-11-03T15:49:30.587Z,13.40
2017-11-03T15:51:58.854Z,11.70
2017-11-03T15:54:27.131Z,9.33
2017-11-03T15:56:56.174Z,18.98
2017-11-03T15:59:24.466Z,14.68
2017-11-03T16:01:52.754Z,11.50
2017-11-03T16:04:21.103Z,12.60
2017-11-03T16:06:50.898Z,11.80
2017-11-03T16:09:19.947Z,16.40
2017-11-03T16:11:48.235Z,15.93
2017-11-03T16:14:19.418Z,12.15
2017-11-03T16:16:47.682Z,11.70
2017-11-03T16:19:15.947Z,18.50
2017-11-03T16:21:46.023Z,13.57
2017-11-03T16:24:14.422Z,12.83
2017-11-03T16:26:42.707Z,12.27
2017-11-03T16:29:17.147Z,14.80
2017-11-03T16:31:45.431Z,11.00
2017-11-03T16:34:13.715Z,12.05
2017-11-03T16:36:52.083Z,13.18
2017-11-03T16:39:21.906Z,14.95
2017-11-03T16:41:50.250Z,12.50
2017-11-03T16:44:18.526Z,12.47
2017-11-03T16:46:53.283Z,15.10
2017-11-03T16:49:22.327Z,14.52
2017-11-03T16:51:52.147Z,14.50
2017-11-03T16:54:21.182Z,13.35
2017-11-03T16:56:49.455Z,15.85
2017-11-03T16:59:17.802Z,12.75
2017-11-03T17:04:48.406Z,13.33
2017-11-03T17:07:17.507Z,11.80
2017-11-03T17:09:45.831Z,14.27
2017-11-03T17:12:14.850Z,11.00
2017-11-03T17:14:43.126Z,12.40
2017-11-03T17:17:11.405Z,12.75
2017-11-03T17:19:39.739Z,15.93
2017-11-03T17:22:08.003Z,11.30
2017-11-03T17:24:36.282Z,15.98
2017-11-03T17:27:06.106Z,14.50
2017-11-03T17:29:34.381Z,14.00
2017-11-03T17:32:02.670Z,12.70
2017-11-03T17:34:30.946Z,16.20
2017-11-03T17:36:59.230Z,12.52
2017-11-03T17:39:27.546Z,12.13
2017-11-03T17:41:55.868Z,15.95
2017-11-03T17:44:24.144Z,14.37
2017-11-03T17:46:53.184Z,11.50
2017-11-03T17:49:21.456Z,13.38
2017-11-03T17:51:49.736Z,12.93
2017-11-03T17:54:18.791Z,12.25
2017-11-03T17:56:47.061Z,14.57
2017-11-03T17:59:15.544Z,16.23
2017-11-03T18:01:43.955Z,12.73
2017-11-03T18:04:12.264Z,13.77
2017-11-03T18:06:41.303Z,14.32
2017-11-03T18:09:09.581Z,16.58
2017-11-03T18:11:37.856Z,17.40
2017-11-03T18:14:06.949Z,13.07
2017-11-03T18:16:35.973Z,16.12
2017-11-03T18:19:04.373Z,13.60
2017-11-03T18:21:32.677Z,12.63
2017-11-03T18:24:00.947Z,14.18
2017-11-03T18:26:29.233Z,17.95
2017-11-03T18:28:57.512Z,17.83
2017-11-03T18:31:25.802Z,15.18
2017-11-03T18:33:54.845Z,19.93
2017-11-03T18:36:23.165Z,14.33
2017-11-03T18:38:51.454Z,15.73
2017-11-03T18:41:19.722Z,14.55
2017-11-03T18:43:48.135Z,17.20
2017-11-03T18:46:17.174Z,18.27
2017-11-03T18:48:45.470Z,18.23
2017-11-03T18:51:15.782Z,15.50
2017-11-03T18:53:44.835Z,17.17
2017-11-03T18:56:13.094Z,19.37
2017-11-03T18:58:41.476Z,17.55
2017-11-03T19:01:10.506Z,22.45
2017-11-03T19:03:38.816Z,20.80
2017-11-03T19:06:07.855Z,16.63
2017-11-03T19:08:36.146Z,18.93
2017-11-03T19:11:05.338Z,19.58
2017-11-03T19:13:34.367Z,16.62
2017-11-03T19:16:02.708Z,18.37
2017-11-03T19:18:31.011Z,20.15
2017-11-03T19:20:59.304Z,19.48
2017-11-03T19:23:28.350Z,22.95
2017-11-03T19:25:56.688Z,28.73
2017-11-03T19:28:24.976Z,19.93
2017-11-03T19:30:53.242Z,18.87
2017-11-03T19:33:21.522Z,19.90
2017-11-03T19:35:50.596Z,18.98
2017-11-03T19:38:18.886Z,19.50
2017-11-03T19:40:47.160Z,21.23
2017-11-03T19:45:58.520Z,15.73
2017-11-03T19:48:35.988Z,16.83
2017-11-03T19:51:05.960Z,18.87
2017-11-03T19:53:34.287Z,18.30
2017-11-03T19:56:02.574Z,18.92
2017-11-03T19:58:30.867Z,18.62
2017-11-03T20:00:59.171Z,18.17
2017-11-03T20:03:27.440Z,18.60
2017-11-03T20:05:56.275Z,15.98
2017-11-03T20:08:28.679Z,18.73
2017-11-03T20:10:56.984Z,19.27
2017-11-03T20:13:26.082Z,18.65
2017-11-03T20:19:00.035Z,18.40
2017-11-03T21:00:47.979Z,19.27
2017-11-03T21:03:21.282Z,23.60
2017-11-03T21:05:49.587Z,20.87
2017-11-03T21:08:19.841Z,25.27
2017-11-03T21:10:51.730Z,24.23
2017-11-03T21:13:24.050Z,24.13
2017-11-03T21:15:54.973Z,18.55
2017-11-03T21:18:24.162Z,18.63
2017-11-03T21:20:57.216Z,20.75
2017-11-03T21:23:31.693Z,24.23
2017-11-03T21:25:59.977Z,22.40
2017-11-03T21:28:28.271Z,24.40
2017-11-03T21:31:02.803Z,23.80
2017-11-03T21:33:54.964Z,22.50
2017-11-03T21:36:24.743Z,21.00
2017-11-03T21:38:53.043Z,21.57
2017-11-03T21:46:39.351Z,21.15
2017-11-03T21:49:07.648Z,22.62
2017-11-03T21:51:35.922Z,19.80
2017-11-03T21:54:04.210Z,23.27
2017-11-03T21:56:33.255Z,17.05
2017-11-03T21:59:01.531Z,23.15
2017-11-03T22:01:29.830Z,22.07
2017-11-03T22:03:58.115Z,21.87
2017-11-03T22:06:26.420Z,16.05
2017-11-03T22:08:56.026Z,22.13
2017-11-03T22:11:25.066Z,23.23
2017-11-03T22:13:53.352Z,22.77
2017-11-03T22:16:21.635Z,20.80
2017-11-03T22:18:49.935Z,23.27
2017-11-03T22:21:18.206Z,20.60
2017-11-03T22:23:46.694Z,18.20
2017-11-03T22:26:14.971Z,18.77
2017-11-03T22:28:44.006Z,21.10
2017-11-03T22:31:12.291Z,24.60
2017-11-03T22:33:40.567Z,22.08
2017-11-03T22:36:08.846Z,26.40
2017-11-03T22:38:37.874Z,19.87
2017-11-03T22:41:06.179Z,22.52
2017-11-03T22:43:35.243Z,19.05
2017-11-03T22:46:03.782Z,19.77
2017-11-03T22:48:32.046Z,19.37
2017-11-03T22:51:00.311Z,26.25
2017-11-03T22:53:28.599Z,23.42
2017-11-03T22:55:56.882Z,19.33
2017-11-03T22:58:25.176Z,22.17
2017-11-03T23:00:53.443Z,22.50
2017-11-03T23:03:21.742Z,22.83
2017-11-03T23:05:49.997Z,26.12
2017-11-03T23:08:18.302Z,19.58
2017-11-03T23:10:46.570Z,21.98
2017-11-03T23:13:14.830Z,24.20
2017-11-03T23:15:43.109Z,29.48
2017-11-03T23:18:11.386Z,19.87
2017-11-03T23:20:39.670Z,21.65
2017-11-03T23:23:07.939Z,21.40
2017-11-03T23:25:36.997Z,25.37
2017-11-03T23:28:05.272Z,25.65
2017-11-03T23:30:33.756Z,20.67
2017-11-03T23:33:02.814Z,25.35
2017-11-03T23:35:31.066Z,26.55
2017-11-03T23:37:59.370Z,20.40
2017-11-03T23:40:28.399Z,24.20
2017-11-03T23:42:56.686Z,26.30
2017-11-03T23:45:25.727Z,23.62
2017-11-03T23:47:54.018Z,24.97
2017-11-03T23:50:22.294Z,25.23
2017-11-03T23:52:51.379Z,25.10
2017-11-03T23:55:20.418Z,23.27
2017-11-03T23:57:48.690Z,25.25
